createdAt,value
2019-04-03T00:00:46.376Z,6.40
2019-04-03T00:03:15.706Z,8.10
2019-04-03T00:05:44.988Z,11.03
2019-04-03T00:08:14.327Z,7.10
2019-04-03T00:10:43.807Z,11.40
2019-04-03T00:13:13.161Z,9.30
2019-04-03T00:15:42.821Z,10.13
2019-04-03T00:18:16.029Z,11.63
2019-04-03T00:20:44.448Z,6.37
2019-04-03T00:23:13.665Z,8.90
2019-04-03T00:25:42.958Z,8.90
2019-04-03T00:28:12.408Z,6.80
2019-04-03T00:30:41.599Z,7.87
2019-04-03T00:33:10.896Z,14.63
2019-04-03T00:35:40.332Z,7.57
2019-04-03T00:38:09.808Z,7.00
2019-04-03T00:40:39.310Z,7.97
2019-04-03T00:43:08.882Z,9.83
2019-04-03T00:45:38.251Z,7.20
2019-04-03T00:48:07.758Z,7.57
2019-04-03T00:50:37.393Z,7.97
2019-04-03T00:53:06.842Z,9.20
2019-04-03T00:55:36.269Z,6.80
2019-04-03T00:58:37.235Z,7.73
2019-04-03T01:01:08.888Z,7.60
2019-04-03T01:03:38.205Z,9.20
2019-04-03T01:06:07.709Z,8.70
2019-04-03T01:08:36.952Z,7.53
2019-04-03T01:11:06.854Z,7.78
2019-04-03T01:13:36.117Z,8.73
2019-04-03T01:16:06.392Z,7.70
2019-04-03T01:18:35.580Z,9.30
2019-04-03T01:21:06.855Z,7.63
2019-04-03T01:23:38.110Z,6.70
2019-04-03T01:26:09.138Z,8.73
2019-04-03T01:28:39.826Z,8.10
2019-04-03T01:31:10.055Z,6.97
2019-04-03T01:33:39.291Z,8.67
2019-04-03T01:36:08.541Z,7.07
2019-04-03T01:38:37.786Z,8.30
2019-04-03T01:41:07.184Z,7.17
2019-04-03T01:43:36.941Z,11.00
2019-04-03T01:46:06.222Z,8.70
2019-04-03T01:48:35.416Z,8.20
2019-04-03T01:51:04.870Z,9.88
2019-04-03T01:53:34.660Z,8.67
2019-04-03T01:56:05.208Z,8.73
2019-04-03T01:58:35.987Z,8.30
2019-04-03T02:01:06.308Z,8.80
2019-04-03T02:03:36.830Z,8.23
2019-04-03T02:06:06.105Z,8.67
2019-04-03T02:08:35.382Z,9.95
2019-04-03T02:11:04.752Z,9.90
2019-04-03T02:13:34.243Z,7.58
2019-04-03T02:16:03.756Z,8.97
2019-04-03T02:18:33.388Z,7.20
2019-04-03T02:21:03.020Z,6.87
2019-04-03T02:23:32.422Z,7.83
2019-04-03T02:26:02.471Z,7.60
2019-04-03T02:28:34.185Z,8.75
2019-04-03T02:31:03.557Z,10.40
2019-04-03T02:33:32.867Z,8.10
2019-04-03T02:36:02.103Z,8.40
2019-04-03T02:38:31.364Z,8.93
2019-04-03T02:41:03.475Z,10.60
2019-04-03T02:43:31.528Z,8.60
2019-04-03T02:46:01.283Z,13.87
2019-04-03T02:48:30.617Z,9.63
2019-04-03T02:51:00.560Z,8.80
2019-04-03T02:53:31.148Z,9.63
2019-04-03T02:56:01.097Z,9.70
2019-04-03T02:58:30.423Z,7.50
2019-04-03T03:00:59.752Z,7.53
2019-04-03T03:03:29.102Z,11.10
2019-04-03T03:06:00.644Z,10.03
2019-04-03T03:08:30.201Z,14.47
2019-04-03T03:10:59.579Z,9.40
2019-04-03T03:13:33.526Z,10.20
2019-04-03T03:16:01.478Z,9.80
2019-04-03T03:18:31.255Z,8.50
2019-04-03T03:21:04.075Z,11.97
2019-04-03T03:23:34.061Z,15.77
2019-04-03T03:26:05.427Z,12.23
2019-04-03T03:28:36.127Z,8.90
2019-04-03T03:31:07.427Z,11.53
2019-04-03T03:33:40.060Z,9.80
2019-04-03T03:36:08.527Z,12.05
2019-04-03T03:38:40.436Z,11.38
2019-04-03T03:41:12.064Z,9.80
2019-04-03T03:43:42.411Z,11.33
2019-04-03T03:46:11.660Z,11.60
2019-04-03T03:48:43.624Z,9.30
2019-04-03T03:51:14.385Z,9.90
2019-04-03T03:53:45.753Z,11.73
2019-04-03T03:56:15.315Z,9.68
2019-04-03T03:58:46.037Z,9.57
2019-04-03T04:01:16.580Z,10.63
2019-04-03T04:03:45.895Z,12.18
2019-04-03T04:06:15.463Z,9.48
2019-04-03T04:08:45.688Z,9.43
2019-04-03T04:11:15.519Z,11.43
2019-04-03T04:13:47.883Z,11.53
2019-04-03T04:16:16.415Z,10.00
2019-04-03T04:18:47.289Z,8.68
2019-04-03T04:21:16.628Z,11.28
2019-04-03T04:23:46.502Z,15.60
2019-04-03T04:26:15.894Z,9.67
2019-04-03T04:28:45.208Z,11.17
2019-04-03T04:31:14.552Z,11.50
2019-04-03T04:33:43.772Z,9.80
2019-04-03T04:36:13.163Z,13.78
2019-04-03T04:38:42.865Z,12.35
2019-04-03T04:41:13.872Z,11.77
2019-04-03T04:43:44.889Z,9.80
2019-04-03T04:46:14.129Z,10.53
2019-04-03T04:48:43.790Z,15.60
2019-04-03T04:51:13.351Z,12.53
2019-04-03T04:53:42.567Z,11.27
2019-04-03T04:56:11.889Z,11.40
2019-04-03T04:58:43.023Z,10.55
2019-04-03T05:01:12.184Z,11.33
2019-04-03T05:03:41.786Z,10.53
2019-04-03T05:06:11.212Z,11.65
2019-04-03T05:08:40.798Z,9.30
2019-04-03T05:11:13.052Z,12.50
2019-04-03T05:13:44.792Z,11.07
2019-04-03T05:16:14.468Z,10.90
2019-04-03T05:18:43.795Z,9.77
2019-04-03T05:21:13.348Z,10.63
2019-04-03T05:23:42.782Z,12.33
2019-04-03T05:26:12.052Z,11.80
2019-04-03T05:28:53.257Z,16.00
2019-04-03T05:31:12.191Z,14.00
2019-04-03T05:33:42.331Z,14.60
2019-04-03T05:36:11.699Z,12.50
2019-04-03T05:38:41.297Z,13.17
2019-04-03T05:41:10.868Z,11.20
2019-04-03T05:43:40.232Z,14.87
2019-04-03T05:46:09.583Z,13.90
2019-04-03T05:48:39.062Z,12.03
2019-04-03T05:51:08.510Z,13.53
2019-04-03T05:53:38.104Z,14.70
2019-04-03T05:56:07.594Z,14.47
2019-04-03T05:58:36.898Z,10.00
2019-04-03T06:01:07.029Z,9.60
2019-04-03T06:03:40.749Z,12.18
2019-04-03T06:06:08.221Z,12.13
2019-04-03T06:08:37.514Z,10.37
2019-04-03T06:11:08.902Z,10.90
2019-04-03T06:13:38.047Z,13.63
2019-04-03T06:16:07.635Z,10.60
2019-04-03T06:18:37.227Z,16.70
2019-04-03T06:21:06.703Z,11.03
2019-04-03T06:23:36.254Z,9.50
2019-04-03T06:26:05.807Z,11.40
2019-04-03T06:28:35.255Z,9.77
2019-04-03T06:31:04.722Z,12.23
2019-04-03T06:33:35.971Z,13.25
2019-04-03T06:36:06.120Z,10.57
2019-04-03T06:38:35.668Z,12.90
2019-04-03T06:41:07.922Z,9.17
2019-04-03T06:43:35.908Z,11.90
2019-04-03T06:46:05.079Z,13.53
2019-04-03T06:48:34.597Z,10.43
2019-04-03T06:51:05.737Z,10.85
2019-04-03T06:53:35.302Z,9.73
2019-04-03T06:56:04.474Z,11.47
2019-04-03T06:58:39.358Z,9.43
2019-04-03T07:01:04.758Z,10.60
2019-04-03T07:03:34.933Z,10.23
2019-04-03T07:06:04.445Z,10.37
2019-04-03T07:08:36.106Z,11.10
2019-04-03T07:11:04.745Z,9.60
2019-04-03T07:13:34.016Z,9.60
2019-04-03T07:16:03.201Z,9.60
2019-04-03T07:18:32.507Z,9.73
2019-04-03T07:21:02.642Z,9.50
2019-04-03T07:23:31.916Z,12.53
2019-04-03T07:26:01.233Z,10.37
2019-04-03T07:28:31.081Z,8.77
2019-04-03T07:31:00.982Z,8.18
2019-04-03T07:33:30.302Z,7.30
2019-04-03T07:35:59.487Z,8.60
2019-04-03T07:38:28.967Z,10.93
2019-04-03T07:40:58.246Z,8.68
2019-04-03T07:43:27.898Z,7.87
2019-04-03T07:45:58.222Z,8.43
2019-04-03T07:48:27.736Z,8.60
2019-04-03T07:50:57.271Z,7.10
2019-04-03T07:53:26.788Z,7.67
2019-04-03T07:55:56.335Z,7.23
2019-04-03T07:58:26.540Z,6.80
2019-04-03T08:00:55.920Z,7.97
2019-04-03T08:03:25.476Z,6.20
2019-04-03T08:05:56.274Z,7.55
2019-04-03T08:08:26.047Z,7.17
2019-04-03T08:10:55.356Z,7.83
2019-04-03T08:13:24.676Z,6.20
2019-04-03T08:15:54.510Z,7.73
2019-04-03T08:18:24.184Z,7.77
2019-04-03T08:20:53.413Z,10.27
2019-04-03T08:23:22.657Z,6.03
2019-04-03T08:25:54.305Z,5.95
2019-04-03T08:28:25.539Z,7.03
2019-04-03T08:30:54.645Z,10.63
2019-04-03T08:33:26.271Z,8.90
2019-04-03T08:35:54.824Z,7.15
2019-04-03T08:38:24.106Z,8.05
2019-04-03T08:40:53.761Z,6.73
2019-04-03T08:43:23.267Z,12.70
2019-04-03T08:45:52.857Z,6.57
2019-04-03T08:48:22.365Z,5.63
2019-04-03T08:50:51.869Z,5.30
2019-04-03T08:53:21.353Z,5.00
2019-04-03T08:55:50.836Z,8.73
2019-04-03T08:58:21.561Z,7.53
2019-04-03T09:00:51.474Z,12.93
2019-04-03T09:03:20.678Z,7.03
2019-04-03T09:05:50.878Z,6.08
2019-04-03T09:08:20.872Z,5.83
2019-04-03T09:10:50.467Z,9.83
2019-04-03T09:13:22.957Z,5.53
2019-04-03T09:15:51.121Z,6.35
2019-04-03T09:18:20.797Z,5.77
2019-04-03T09:20:50.232Z,6.05
2019-04-03T09:23:19.671Z,6.10
2019-04-03T09:25:49.255Z,10.38
2019-04-03T09:28:19.485Z,5.42
2019-04-03T09:30:49.010Z,12.07
2019-04-03T09:33:18.319Z,6.92
2019-04-03T09:35:47.623Z,5.77
2019-04-03T09:38:16.812Z,5.40
2019-04-03T09:40:48.294Z,6.17
2019-04-03T09:43:17.219Z,5.57
2019-04-03T09:45:46.463Z,7.83
2019-04-03T09:48:16.454Z,5.77
2019-04-03T09:50:47.163Z,6.10
2019-04-03T09:53:16.630Z,5.80
2019-04-03T09:55:45.889Z,5.60
2019-04-03T09:58:15.145Z,5.28
2019-04-03T10:00:45.040Z,8.50
2019-04-03T10:03:14.303Z,8.07
2019-04-03T10:05:44.132Z,6.93
2019-04-03T10:08:13.672Z,5.30
2019-04-03T10:10:43.020Z,5.90
2019-04-03T10:13:12.290Z,4.20
2019-04-03T10:15:41.963Z,4.33
2019-04-03T10:18:11.181Z,2.95
2019-04-03T10:20:40.533Z,3.27
2019-04-03T10:23:10.200Z,3.47
2019-04-03T10:25:39.741Z,3.47
2019-04-03T10:28:13.779Z,6.78
2019-04-03T10:30:41.878Z,4.03
2019-04-03T10:33:11.431Z,9.05
2019-04-03T10:35:40.718Z,3.10
2019-04-03T10:38:10.423Z,3.83
2019-04-03T10:40:39.955Z,3.77
2019-04-03T10:43:09.295Z,4.80
2019-04-03T10:45:38.509Z,5.53
2019-04-03T10:48:08.124Z,5.60
2019-04-03T10:50:38.658Z,5.07
2019-04-03T10:53:08.235Z,4.97
2019-04-03T10:55:37.916Z,5.87
2019-04-03T10:58:08.528Z,5.23
2019-04-03T11:00:38.757Z,6.10
2019-04-03T11:03:08.028Z,4.20
2019-04-03T11:05:37.300Z,3.40
2019-04-03T11:08:06.836Z,3.00
2019-04-03T11:10:36.400Z,2.37
2019-04-03T11:13:06.040Z,2.53
2019-04-03T11:15:35.847Z,1.20
2019-04-03T11:18:05.412Z,2.17
2019-04-03T11:20:36.702Z,0.90
2019-04-03T11:23:08.176Z,1.00
2019-04-03T11:25:36.662Z,1.00
2019-04-03T11:28:06.500Z,0.87
2019-04-03T11:30:36.235Z,1.23
2019-04-03T11:33:05.965Z,1.33
2019-04-03T11:35:35.135Z,1.20
2019-04-03T11:38:12.798Z,1.30
2019-04-03T11:40:35.771Z,2.87
2019-04-03T11:43:05.609Z,1.00
2019-04-03T11:45:34.958Z,1.00
2019-04-03T11:48:04.723Z,1.92
2019-04-03T11:50:33.932Z,1.20
2019-04-03T11:53:07.082Z,0.80
2019-04-03T11:55:34.609Z,1.00
2019-04-03T11:58:03.864Z,0.80
2019-04-03T12:00:37.797Z,0.82
2019-04-03T12:03:07.069Z,0.70
2019-04-03T12:05:37.226Z,0.90
2019-04-03T12:08:06.540Z,1.00
2019-04-03T12:10:35.771Z,0.80
2019-04-03T12:13:05.891Z,0.80
2019-04-03T12:15:35.224Z,0.80
2019-04-03T12:18:04.462Z,0.80
2019-04-03T12:20:33.868Z,0.80
2019-04-03T12:23:03.874Z,0.97
2019-04-03T12:25:34.728Z,0.90
2019-04-03T12:28:06.690Z,0.80
2019-04-03T12:30:35.919Z,1.00
2019-04-03T12:33:05.185Z,1.30
2019-04-03T12:35:34.319Z,1.00
2019-04-03T12:38:03.602Z,1.00
2019-04-03T12:40:32.969Z,5.03
2019-04-03T12:43:02.345Z,1.57
2019-04-03T12:45:31.623Z,1.10
2019-04-03T12:48:01.037Z,1.30
2019-04-03T12:50:30.335Z,1.40
2019-04-03T12:52:59.612Z,1.20
2019-04-03T12:55:29.173Z,1.23
2019-04-03T12:57:58.821Z,1.37
2019-04-03T13:00:28.391Z,1.47
2019-04-03T13:02:58.071Z,1.47
2019-04-03T13:05:27.707Z,1.40
2019-04-03T13:07:59.194Z,2.70
2019-04-03T13:10:40.298Z,7.00
2019-04-03T13:12:59.026Z,1.00
2019-04-03T13:15:28.561Z,2.70
2019-04-03T13:17:57.892Z,1.75
2019-04-03T13:20:27.156Z,2.40
2019-04-03T13:22:56.444Z,1.97
2019-04-03T13:25:26.033Z,0.90
2019-04-03T13:27:55.357Z,1.50
2019-04-03T13:30:24.781Z,2.80
2019-04-03T13:32:59.893Z,1.10
2019-04-03T13:35:25.760Z,1.10
2019-04-03T13:37:55.575Z,0.90
2019-04-03T13:40:25.764Z,1.30
2019-04-03T13:42:55.031Z,3.02
2019-04-03T13:45:24.815Z,1.75
2019-04-03T13:47:54.560Z,1.30
2019-04-03T13:50:24.100Z,2.00
2019-04-03T13:52:53.479Z,1.00
2019-04-03T13:55:22.774Z,1.00
2019-04-03T13:57:52.251Z,0.90
2019-04-03T14:00:23.477Z,1.07
2019-04-03T14:02:55.894Z,0.80
2019-04-03T14:05:26.640Z,1.00
2019-04-03T14:07:55.083Z,1.05
2019-04-03T14:10:26.989Z,1.27
2019-04-03T14:12:55.472Z,1.35
2019-04-03T14:15:25.290Z,0.90
2019-04-03T14:17:58.404Z,1.03
2019-04-03T14:20:26.545Z,1.00
2019-04-03T14:22:56.455Z,3.30
2019-04-03T14:25:31.376Z,1.10
2019-04-03T14:27:57.219Z,0.80
2019-04-03T14:30:26.889Z,1.70
2019-04-03T14:32:56.336Z,1.63
2019-04-03T14:37:59.467Z,2.00
2019-04-03T14:40:28.359Z,1.00
2019-04-03T14:42:58.716Z,1.50
2019-04-03T14:45:29.041Z,1.03
2019-04-03T14:47:58.751Z,1.20
2019-04-03T14:50:28.292Z,3.27
2019-04-03T14:53:00.765Z,1.40
2019-04-03T14:55:30.160Z,1.33
2019-04-03T14:57:59.765Z,1.10
2019-04-03T15:00:31.218Z,1.60
2019-04-03T15:03:00.535Z,0.90
2019-04-03T15:05:29.878Z,1.50
2019-04-03T15:07:59.656Z,2.30
2019-04-03T15:10:30.757Z,1.23
2019-04-03T15:13:00.096Z,3.00
2019-04-03T15:15:30.071Z,2.03
2019-04-03T15:18:00.006Z,2.83
2019-04-03T15:20:29.617Z,2.07
2019-04-03T15:22:59.113Z,2.90
2019-04-03T15:25:29.009Z,2.70
2019-04-03T15:27:59.886Z,2.20
2019-04-03T15:30:29.616Z,2.63
2019-04-03T15:32:59.245Z,3.50
2019-04-03T15:35:29.864Z,3.50
2019-04-03T15:37:59.653Z,3.33
2019-04-03T15:40:29.819Z,3.37
2019-04-03T15:42:59.567Z,2.98
2019-04-03T15:45:28.846Z,3.37
2019-04-03T15:47:58.531Z,5.70
2019-04-03T15:50:30.201Z,3.67
2019-04-03T15:53:00.140Z,3.40
2019-04-03T15:55:30.124Z,2.57
2019-04-03T15:58:00.061Z,2.73
2019-04-03T16:00:29.948Z,5.30
2019-04-03T16:02:59.155Z,2.70
2019-04-03T16:05:30.474Z,2.57
2019-04-03T16:08:01.903Z,5.87
2019-04-03T16:10:31.682Z,3.70
2019-04-03T16:13:01.198Z,3.90
2019-04-03T16:15:31.354Z,4.10
2019-04-03T16:18:00.537Z,3.40
2019-04-03T16:20:29.938Z,4.57
2019-04-03T16:23:01.310Z,4.03
2019-04-03T16:25:31.066Z,5.93
2019-04-03T16:28:01.341Z,4.47
2019-04-03T16:30:34.149Z,4.67
2019-04-03T16:33:13.666Z,2.60
2019-04-03T16:35:37.396Z,5.10
2019-04-03T16:38:07.319Z,2.83
2019-04-03T16:40:37.816Z,5.30
2019-04-03T16:43:08.026Z,4.77
2019-04-03T16:45:38.960Z,3.60
2019-04-03T16:48:10.029Z,4.13
2019-04-03T16:50:39.687Z,4.23
2019-04-03T16:53:09.196Z,6.30
2019-04-03T16:55:38.725Z,5.27
2019-04-03T16:58:08.910Z,4.08
2019-04-03T17:00:40.908Z,3.40
2019-04-03T17:03:09.396Z,3.90
2019-04-03T17:05:38.591Z,5.27
2019-04-03T17:08:08.166Z,3.57
2019-04-03T17:10:40.461Z,4.40
2019-04-03T17:13:08.955Z,4.97
2019-04-03T17:15:39.021Z,6.12
2019-04-03T17:18:10.712Z,3.33
2019-04-03T17:20:40.427Z,4.90
2019-04-03T17:23:12.344Z,4.35
2019-04-03T17:25:47.722Z,5.50
2019-04-03T17:28:14.611Z,5.97
2019-04-03T17:30:45.007Z,10.60
2019-04-03T17:33:14.868Z,7.95
2019-04-03T17:35:47.344Z,6.50
2019-04-03T17:38:16.268Z,7.00
2019-04-03T17:40:45.908Z,9.47
2019-04-03T17:43:16.868Z,8.03
2019-04-03T17:45:46.966Z,8.50
2019-04-03T17:48:16.639Z,6.70
2019-04-03T17:50:46.160Z,5.60
2019-04-03T17:53:15.721Z,6.70
2019-04-03T17:55:45.545Z,5.12
2019-04-03T17:58:16.947Z,5.23
2019-04-03T18:00:46.687Z,6.03
2019-04-03T18:03:19.266Z,5.50
2019-04-03T18:05:47.968Z,5.53
2019-04-03T18:08:17.354Z,5.45
2019-04-03T18:10:46.671Z,5.47
2019-04-03T18:13:15.918Z,7.47
2019-04-03T18:15:45.185Z,9.37
2019-04-03T18:18:14.708Z,6.97
2019-04-03T18:20:44.735Z,4.80
2019-04-03T18:23:14.907Z,3.63
2019-04-03T18:25:44.907Z,4.90
2019-04-03T18:28:14.194Z,3.55
2019-04-03T18:30:43.776Z,3.70
2019-04-03T18:33:16.628Z,7.60
2019-04-03T18:35:44.536Z,11.80
2019-04-03T18:38:13.936Z,7.03
2019-04-03T18:40:45.577Z,3.13
2019-04-03T18:43:14.531Z,3.20
2019-04-03T18:45:43.705Z,3.20
2019-04-03T18:48:13.134Z,3.05
2019-04-03T18:50:44.409Z,2.83
2019-04-03T18:53:13.772Z,3.20
2019-04-03T18:55:45.557Z,2.35
2019-04-03T18:58:15.206Z,2.37
2019-04-03T19:00:44.534Z,2.40
2019-04-03T19:03:13.813Z,3.70
2019-04-03T19:05:43.377Z,2.13
2019-04-03T19:08:13.726Z,4.37
2019-04-03T19:10:43.149Z,1.82
2019-04-03T19:13:13.972Z,1.87
2019-04-03T19:15:43.867Z,3.10
2019-04-03T19:18:19.287Z,5.53
2019-04-03T19:20:44.140Z,2.20
2019-04-03T19:23:13.674Z,2.80
2019-04-03T19:25:43.214Z,2.43
2019-04-03T19:28:12.507Z,2.43
2019-04-03T19:30:41.872Z,2.97
2019-04-03T19:33:13.659Z,4.08
2019-04-03T19:35:42.529Z,2.43
2019-04-03T19:38:13.376Z,2.00
2019-04-03T19:40:42.718Z,1.77
2019-04-03T19:43:14.561Z,8.53
2019-04-03T19:45:43.075Z,2.27
2019-04-03T19:48:12.355Z,2.10
2019-04-03T19:50:41.642Z,2.40
2019-04-03T19:53:13.445Z,2.47
2019-04-03T19:55:43.228Z,2.67
2019-04-03T19:58:12.551Z,3.40
2019-04-03T20:00:42.220Z,3.70
2019-04-03T20:03:14.722Z,3.57
2019-04-03T20:05:44.458Z,4.40
2019-04-03T20:08:13.652Z,2.33
2019-04-03T20:10:42.867Z,37.83
2019-04-03T20:13:12.108Z,28.07
2019-04-03T20:15:41.399Z,4.87
2019-04-03T20:18:11.432Z,12.37
2019-04-03T20:20:43.936Z,3.90
2019-04-03T20:23:23.503Z,2.92
2019-04-03T20:25:52.842Z,2.90
2019-04-03T20:28:24.190Z,2.43
2019-04-03T20:30:53.460Z,2.70
2019-04-03T20:33:22.692Z,4.60
2019-04-03T20:35:51.903Z,3.40
2019-04-03T20:38:21.228Z,4.87
2019-04-03T20:40:50.504Z,5.03
2019-04-03T20:43:20.037Z,4.80
2019-04-03T20:45:50.255Z,7.37
2019-04-03T20:48:19.538Z,4.47
2019-04-03T20:50:49.089Z,6.23
2019-04-03T20:53:18.656Z,7.90
2019-04-03T20:55:47.906Z,9.57
2019-04-03T20:58:17.104Z,14.75
2019-04-03T21:00:49.292Z,11.33
2019-04-03T21:03:20.712Z,13.20
2019-04-03T21:05:50.467Z,16.90
2019-04-03T21:08:20.024Z,21.30
2019-04-03T21:10:49.358Z,15.35
2019-04-03T21:13:18.937Z,13.80
2019-04-03T21:15:48.291Z,16.37
2019-04-03T21:18:20.712Z,16.42
2019-04-03T21:20:52.805Z,16.02
2019-04-03T21:23:23.694Z,14.10
2019-04-03T21:25:53.289Z,21.07
2019-04-03T21:28:22.773Z,18.40
2019-04-03T21:30:53.064Z,18.70
2019-04-03T21:33:22.987Z,17.87
2019-04-03T21:35:52.796Z,23.10
2019-04-03T21:38:22.023Z,17.73
2019-04-03T21:40:51.257Z,16.05
2019-04-03T21:43:20.524Z,20.50
2019-04-03T21:45:50.060Z,16.80
2019-04-03T21:48:19.602Z,18.83
2019-04-03T21:50:49.782Z,16.77
2019-04-03T21:53:19.609Z,11.63
2019-04-03T21:55:48.839Z,8.83
2019-04-03T21:58:18.104Z,10.10
2019-04-03T22:01:22.155Z,9.73
2019-04-03T22:03:52.372Z,7.20
2019-04-03T22:06:22.103Z,8.17
2019-04-03T22:08:54.454Z,8.33
2019-04-03T22:11:24.025Z,9.80
2019-04-03T22:13:53.639Z,10.88
2019-04-03T22:16:23.302Z,9.30
2019-04-03T22:18:52.944Z,10.90
2019-04-03T22:21:23.894Z,12.17
2019-04-03T22:23:53.405Z,12.10
2019-04-03T22:26:22.927Z,10.50
2019-04-03T22:28:52.201Z,15.10
2019-04-03T22:31:22.875Z,13.23
2019-04-03T22:33:52.899Z,13.00
2019-04-03T22:36:22.335Z,12.67
2019-04-03T22:38:55.000Z,13.77
2019-04-03T22:41:25.910Z,13.23
2019-04-03T22:43:55.216Z,15.60
2019-04-03T22:46:24.795Z,18.20
2019-04-03T22:48:54.517Z,13.90
2019-04-03T22:51:23.811Z,13.00
2019-04-03T22:53:53.485Z,13.37
2019-04-03T22:56:22.771Z,14.43
2019-04-03T22:58:52.968Z,15.13
2019-04-03T23:01:22.972Z,14.87
2019-04-03T23:03:55.523Z,14.35
2019-04-03T23:06:24.844Z,14.13
2019-04-03T23:08:54.424Z,15.73
2019-04-03T23:11:23.803Z,14.87
2019-04-03T23:13:54.317Z,16.70
2019-04-03T23:16:24.755Z,14.13
2019-04-03T23:18:54.424Z,14.63
2019-04-03T23:21:24.467Z,16.60
2019-04-03T23:23:57.907Z,16.17
2019-04-03T23:26:27.331Z,17.37
2019-04-03T23:28:56.511Z,14.87
2019-04-03T23:31:25.753Z,17.03
2019-04-03T23:33:54.892Z,13.37
2019-04-03T23:36:24.158Z,16.90
2019-04-03T23:38:56.391Z,13.50
2019-04-03T23:41:25.403Z,14.43
2019-04-03T23:43:54.902Z,20.87
2019-04-03T23:46:24.121Z,18.70
2019-04-03T23:48:53.371Z,17.27
2019-04-03T23:51:23.922Z,19.03
2019-04-03T23:53:54.185Z,19.00
2019-04-03T23:56:23.451Z,16.63
2019-04-03T23:58:52.720Z,16.42
